createdAt,value
2019-04-09T00:00:17.271Z,17.93
2019-04-09T00:03:18.906Z,20.83
2019-04-09T00:06:00.691Z,17.10
2019-04-09T00:08:41.879Z,17.40
2019-04-09T00:11:22.772Z,19.93
2019-04-09T00:14:03.700Z,18.43
2019-04-09T00:16:45.604Z,19.87
2019-04-09T00:19:27.434Z,18.10
2019-04-09T00:22:08.369Z,18.77
2019-04-09T00:24:49.765Z,20.27
2019-04-09T00:27:30.498Z,21.80
2019-04-09T00:30:12.492Z,27.53
2019-04-09T00:32:53.766Z,23.33
2019-04-09T00:35:34.567Z,20.63
2019-04-09T00:38:15.281Z,18.97
2019-04-09T00:40:56.980Z,20.50
2019-04-09T00:43:37.846Z,21.33
2019-04-09T00:46:19.841Z,19.67
2019-04-09T00:49:01.016Z,20.87
2019-04-09T00:51:42.094Z,21.87
2019-04-09T00:54:23.306Z,22.03
2019-04-09T00:57:08.796Z,22.33
2019-04-09T00:59:47.166Z,21.50
2019-04-09T01:02:28.645Z,23.23
2019-04-09T01:05:11.080Z,22.43
2019-04-09T01:07:51.879Z,23.60
2019-04-09T01:10:32.559Z,23.27
2019-04-09T01:13:14.066Z,21.57
2019-04-09T01:15:55.528Z,22.27
2019-04-09T01:18:36.411Z,24.13
2019-04-09T01:21:16.774Z,25.10
2019-04-09T01:23:57.539Z,26.07
2019-04-09T01:26:49.156Z,27.83
2019-04-09T01:29:51.215Z,21.67
2019-04-09T01:32:38.059Z,26.23
2019-04-09T01:35:28.951Z,23.87
2019-04-09T01:38:24.399Z,24.13
2019-04-09T01:41:25.631Z,23.10
2019-04-09T01:44:19.275Z,23.13
2019-04-09T01:47:15.986Z,22.80
2019-04-09T01:50:17.099Z,27.07
2019-04-09T01:53:06.015Z,26.23
2019-04-09T01:56:07.162Z,27.20
2019-04-09T01:59:07.234Z,25.47
2019-04-09T02:02:02.566Z,26.60
2019-04-09T02:05:03.494Z,28.33
2019-04-09T02:08:01.782Z,27.27
2019-04-09T02:10:57.976Z,24.80
2019-04-09T02:14:05.919Z,30.43
2019-04-09T02:17:13.595Z,28.20
2019-04-09T02:20:21.987Z,27.03
2019-04-09T02:23:15.923Z,26.03
2019-04-09T02:26:23.336Z,27.23
2019-04-09T02:29:31.146Z,28.20
2019-04-09T02:32:38.416Z,31.23
2019-04-09T02:35:45.591Z,25.70
2019-04-09T02:38:52.701Z,25.53
2019-04-09T02:41:59.823Z,28.33
2019-04-09T02:45:08.373Z,28.20
2019-04-09T02:48:16.950Z,29.20
2019-04-09T02:51:18.766Z,31.53
2019-04-09T02:54:25.947Z,29.77
2019-04-09T02:57:33.055Z,30.03
2019-04-09T03:00:30.110Z,31.70
2019-04-09T03:03:27.656Z,28.53
2019-04-09T03:06:26.214Z,29.23
2019-04-09T03:09:26.686Z,33.93
2019-04-09T03:12:27.229Z,33.17
2019-04-09T03:15:15.671Z,31.97
2019-04-09T03:21:13.205Z,28.87
2019-04-09T03:24:02.218Z,31.37
2019-04-09T03:26:53.563Z,31.00
2019-04-09T03:29:44.866Z,29.47
2019-04-09T03:32:53.948Z,28.17
2019-04-09T03:36:01.302Z,29.63
2019-04-09T03:39:08.481Z,32.77
2019-04-09T03:42:04.149Z,28.90
2019-04-09T03:45:11.248Z,31.67
2019-04-09T03:48:19.232Z,31.50
2019-04-09T03:51:26.976Z,34.20
2019-04-09T03:54:22.328Z,28.60
2019-04-09T03:57:30.562Z,28.17
2019-04-09T04:00:34.733Z,31.70
2019-04-09T04:03:42.618Z,29.87
2019-04-09T04:06:50.516Z,33.63
2019-04-09T04:09:39.134Z,26.97
2019-04-09T04:12:39.453Z,32.40
2019-04-09T04:15:39.149Z,31.77
2019-04-09T04:21:50.399Z,31.60
2019-04-09T04:24:57.730Z,32.17
2019-04-09T04:28:05.003Z,29.67
2019-04-09T04:31:13.667Z,28.73
2019-04-09T04:34:20.978Z,29.60
2019-04-09T04:37:29.022Z,33.47
2019-04-09T04:40:36.987Z,32.30
2019-04-09T04:43:44.099Z,33.67
2019-04-09T04:46:51.207Z,48.00
2019-04-09T04:49:58.303Z,35.30
2019-04-09T04:52:52.547Z,32.13
2019-04-09T04:55:59.957Z,34.17
2019-04-09T04:59:07.581Z,31.20
2019-04-09T05:02:17.225Z,31.07
2019-04-09T05:05:25.214Z,34.50
2019-04-09T05:08:25.645Z,37.60
2019-04-09T05:11:26.392Z,35.70
2019-04-09T05:14:27.569Z,34.00
2019-04-09T05:17:28.826Z,39.70
2019-04-09T05:20:29.133Z,38.63
2019-04-09T05:23:29.717Z,39.70
2019-04-09T05:26:22.107Z,36.63
2019-04-09T05:29:24.084Z,42.57
2019-04-09T05:32:17.434Z,39.47
2019-04-09T05:35:15.958Z,45.83
2019-04-09T05:38:03.076Z,44.53
2019-04-09T05:41:07.618Z,45.10
2019-04-09T05:44:08.312Z,43.70
2019-04-09T05:47:08.221Z,40.73
2019-04-09T05:50:00.447Z,39.53
2019-04-09T05:53:07.602Z,43.17
2019-04-09T05:56:07.063Z,38.30
2019-04-09T05:59:10.043Z,43.33
2019-04-09T06:01:58.899Z,47.37
2019-04-09T06:04:58.341Z,51.27
2019-04-09T06:07:51.500Z,49.17
2019-04-09T06:10:33.114Z,48.20
2019-04-09T06:13:22.082Z,46.03
2019-04-09T06:16:03.740Z,45.77
2019-04-09T06:18:44.346Z,45.70
2019-04-09T06:21:28.024Z,47.23
2019-04-09T06:24:07.870Z,41.67
2019-04-09T06:26:49.346Z,41.23
2019-04-09T06:29:29.947Z,40.17
2019-04-09T06:35:41.136Z,45.73
2019-04-09T06:38:39.379Z,41.33
2019-04-09T06:41:42.038Z,42.23
2019-04-09T06:44:35.633Z,40.60
2019-04-09T06:50:27.083Z,43.77
2019-04-09T06:53:28.913Z,40.27
2019-04-09T06:56:19.765Z,38.47
2019-04-09T06:59:11.291Z,36.97
2019-04-09T07:01:59.506Z,40.00
2019-04-09T07:05:02.679Z,36.50
2019-04-09T07:08:03.460Z,42.43
2019-04-09T07:11:12.604Z,37.45
2019-04-09T07:14:04.557Z,37.30
2019-04-09T07:17:05.780Z,39.23
2019-04-09T07:20:05.853Z,38.95
2019-04-09T07:23:01.959Z,38.10
2019-04-09T07:26:04.067Z,38.08
2019-04-09T07:29:03.752Z,37.45
2019-04-09T07:32:05.673Z,36.40
2019-04-09T07:35:06.487Z,41.90
2019-04-09T07:37:57.979Z,37.40
2019-04-09T07:41:08.139Z,38.48
2019-04-09T07:44:14.220Z,38.95
2019-04-09T07:47:23.525Z,39.85
2019-04-09T07:50:18.147Z,34.35
2019-04-09T07:53:28.591Z,33.70
2019-04-09T07:59:43.131Z,36.95
2019-04-09T08:02:43.796Z,35.30
2019-04-09T08:05:51.963Z,35.03
2019-04-09T08:08:51.403Z,37.85
2019-04-09T08:11:46.528Z,35.95
2019-04-09T08:14:42.458Z,33.33
2019-04-09T08:17:48.146Z,33.83
2019-04-09T08:20:44.015Z,30.75
2019-04-09T08:23:46.791Z,36.60
2019-04-09T08:26:47.040Z,33.23
2019-04-09T08:29:56.538Z,30.97
2019-04-09T08:32:54.895Z,35.78
2019-04-09T08:35:55.210Z,33.23
2019-04-09T08:38:55.309Z,35.13
2019-04-09T08:42:04.370Z,34.18
2019-04-09T08:44:58.923Z,34.20
2019-04-09T08:48:10.960Z,35.85
2019-04-09T08:51:06.004Z,33.92
2019-04-09T08:54:04.585Z,31.80
2019-04-09T08:56:59.866Z,34.58
2019-04-09T09:00:07.878Z,33.08
2019-04-09T09:03:04.432Z,32.85
2019-04-09T09:06:15.460Z,31.65
2019-04-09T09:09:17.965Z,32.93
2019-04-09T09:12:10.621Z,34.65
2019-04-09T09:15:10.263Z,32.83
2019-04-09T09:18:01.613Z,30.55
2019-04-09T09:20:55.548Z,33.25
2019-04-09T09:23:59.806Z,30.45
2019-04-09T09:27:11.683Z,30.88
2019-04-09T09:30:17.732Z,28.45
2019-04-09T09:33:29.291Z,28.00
2019-04-09T09:36:37.212Z,28.77
2019-04-09T09:39:43.011Z,28.65
2019-04-09T09:42:49.494Z,26.42
2019-04-09T09:46:01.032Z,27.80
2019-04-09T09:49:06.290Z,27.90
2019-04-09T09:51:59.634Z,29.18
2019-04-09T09:54:56.126Z,24.63
2019-04-09T09:58:03.235Z,24.20
2019-04-09T10:01:19.656Z,24.43
2019-04-09T10:04:07.247Z,25.12
2019-04-09T10:07:14.829Z,25.37
2019-04-09T10:10:16.949Z,26.62
2019-04-09T10:13:26.432Z,25.48
2019-04-09T10:16:33.787Z,31.93
2019-04-09T10:19:41.249Z,26.07
2019-04-09T10:22:48.370Z,26.07
2019-04-09T10:25:56.491Z,28.32
2019-04-09T10:29:10.505Z,22.32
2019-04-09T10:32:05.365Z,25.90
2019-04-09T10:35:10.505Z,23.27
2019-04-09T10:38:21.652Z,24.60
2019-04-09T10:41:34.257Z,23.35
2019-04-09T10:44:38.208Z,26.93
2019-04-09T10:47:44.752Z,22.13
2019-04-09T10:50:45.324Z,24.98
2019-04-09T10:53:54.369Z,25.12
2019-04-09T10:57:06.494Z,23.40
2019-04-09T11:00:10.527Z,25.20
2019-04-09T11:03:18.694Z,22.62
2019-04-09T11:06:28.075Z,21.85
2019-04-09T11:09:14.650Z,21.37
2019-04-09T11:12:11.061Z,19.87
2019-04-09T11:15:03.769Z,20.95
2019-04-09T11:17:55.710Z,19.77
2019-04-09T11:20:56.159Z,19.17
2019-04-09T11:23:57.188Z,17.48
2019-04-09T11:27:03.429Z,22.60
2019-04-09T11:29:59.423Z,22.05
2019-04-09T11:33:06.870Z,23.25
2019-04-09T11:36:14.031Z,23.12
2019-04-09T11:39:21.150Z,22.48
2019-04-09T11:42:28.320Z,21.45
2019-04-09T11:45:35.686Z,23.42
2019-04-09T11:48:42.773Z,23.50
2019-04-09T11:51:42.073Z,20.97
2019-04-09T11:54:49.250Z,23.38
2019-04-09T11:57:57.123Z,22.80
2019-04-09T12:01:04.531Z,22.82
2019-04-09T12:04:11.820Z,27.50
2019-04-09T12:07:11.709Z,23.47
2019-04-09T12:10:12.071Z,22.32
2019-04-09T12:13:11.935Z,22.22
2019-04-09T12:16:11.411Z,23.73
2019-04-09T12:19:16.689Z,22.90
2019-04-09T12:22:16.480Z,22.80
2019-04-09T12:25:07.617Z,22.42
2019-04-09T12:28:07.133Z,22.02
2019-04-09T12:30:55.607Z,24.27
2019-04-09T12:33:42.448Z,25.92
2019-04-09T12:36:38.462Z,26.40
2019-04-09T12:39:26.543Z,26.55
2019-04-09T12:42:18.408Z,23.55
2019-04-09T12:45:20.194Z,26.68
2019-04-09T12:48:20.911Z,40.15
2019-04-09T12:51:13.072Z,23.62
2019-04-09T12:54:13.976Z,23.92
2019-04-09T12:57:06.938Z,22.52
2019-04-09T12:59:52.458Z,24.20
2019-04-09T13:03:00.784Z,24.35
2019-04-09T13:06:08.118Z,22.95
2019-04-09T13:09:16.095Z,23.75
2019-04-09T13:12:23.543Z,22.37
2019-04-09T13:15:30.709Z,23.32
2019-04-09T13:18:37.907Z,26.77
2019-04-09T13:21:31.937Z,26.95
2019-04-09T13:24:39.259Z,23.22
2019-04-09T13:27:47.055Z,23.60
2019-04-09T13:30:55.250Z,23.25
2019-04-09T13:34:03.635Z,24.45
2019-04-09T13:37:10.922Z,24.50
2019-04-09T13:40:18.938Z,27.62
2019-04-09T13:43:26.114Z,26.05
2019-04-09T13:46:23.111Z,25.45
2019-04-09T13:49:23.073Z,24.30
2019-04-09T13:52:31.829Z,27.75
2019-04-09T13:55:12.673Z,28.30
2019-04-09T13:57:54.141Z,28.45
2019-04-09T14:00:35.923Z,27.85
2019-04-09T14:06:12.874Z,28.77
2019-04-09T14:08:53.420Z,33.92
2019-04-09T14:11:34.507Z,27.80
2019-04-09T14:14:16.349Z,30.35
2019-04-09T14:16:57.809Z,25.65
2019-04-09T14:19:49.291Z,27.22
2019-04-09T14:22:22.307Z,28.50
2019-04-09T14:25:03.307Z,26.12
2019-04-09T14:27:44.261Z,24.90
2019-04-09T14:30:25.013Z,26.70
2019-04-09T14:33:10.853Z,27.10
2019-04-09T14:35:48.674Z,26.68
2019-04-09T14:38:30.197Z,24.80
2019-04-09T14:41:12.374Z,20.90
2019-04-09T14:43:53.067Z,23.22
2019-04-09T14:46:33.783Z,24.95
2019-04-09T14:49:15.747Z,23.95
2019-04-09T14:51:58.170Z,18.77
2019-04-09T14:54:39.681Z,15.95
2019-04-09T15:03:24.633Z,12.18
2019-04-09T15:06:10.187Z,14.78
2019-04-09T15:09:00.378Z,11.65
2019-04-09T15:11:49.530Z,16.80
2019-04-09T15:14:18.390Z,12.33
2019-04-09T15:17:07.520Z,13.78
2019-04-09T15:19:56.831Z,12.15
2019-04-09T15:22:47.156Z,12.93
2019-04-09T15:25:36.363Z,11.03
2019-04-09T15:28:26.058Z,10.38
2019-04-09T15:31:16.288Z,10.43
2019-04-09T15:34:06.193Z,10.98
2019-04-09T15:36:56.257Z,9.50
2019-04-09T15:39:45.817Z,7.95
2019-04-09T15:42:34.277Z,9.08
2019-04-09T15:45:22.974Z,51.77
2019-04-09T15:48:12.508Z,11.50
2019-04-09T15:51:00.571Z,8.98
2019-04-09T15:53:49.249Z,10.40
2019-04-09T15:56:30.855Z,9.28
2019-04-09T15:59:12.040Z,10.63
2019-04-09T16:01:52.676Z,21.65
2019-04-09T16:04:36.374Z,9.03
2019-04-09T16:07:16.110Z,9.40
2019-04-09T16:09:56.894Z,7.80
2019-04-09T16:12:37.636Z,6.65
2019-04-09T16:15:18.920Z,9.50
2019-04-09T16:17:48.097Z,8.83
2019-04-09T16:20:36.214Z,9.38
2019-04-09T16:23:25.094Z,8.58
2019-04-09T16:26:14.694Z,9.58
2019-04-09T16:29:04.784Z,9.45
2019-04-09T16:31:55.183Z,9.60
2019-04-09T16:34:44.117Z,8.90
2019-04-09T16:37:33.576Z,9.58
2019-04-09T16:40:21.704Z,26.20
2019-04-09T16:43:10.418Z,15.10
2019-04-09T16:45:59.835Z,23.40
2019-04-09T16:48:47.994Z,45.92
2019-04-09T16:51:36.774Z,20.70
2019-04-09T16:54:27.297Z,10.75
2019-04-09T16:57:09.097Z,11.60
2019-04-09T16:59:50.542Z,14.20
2019-04-09T17:02:32.373Z,10.80
2019-04-09T17:05:13.837Z,12.82
2019-04-09T17:07:54.565Z,10.48
2019-04-09T17:10:35.902Z,10.08
2019-04-09T17:13:17.057Z,9.50
2019-04-09T17:15:58.094Z,13.62
2019-04-09T17:18:38.902Z,11.38
2019-04-09T17:21:19.303Z,12.23
2019-04-09T17:24:02.231Z,14.83
2019-04-09T17:26:40.967Z,14.10
2019-04-09T17:29:29.512Z,13.58
2019-04-09T17:32:17.841Z,12.25
2019-04-09T17:35:06.701Z,16.75
2019-04-09T17:37:56.086Z,14.23
2019-04-09T17:40:44.215Z,12.45
2019-04-09T17:43:32.365Z,12.78
2019-04-09T17:46:21.703Z,14.18
2019-04-09T17:49:11.179Z,15.00
2019-04-09T17:52:01.779Z,12.70
2019-04-09T17:54:50.733Z,12.50
2019-04-09T17:57:31.324Z,14.13
2019-04-09T18:00:15.224Z,14.15
2019-04-09T18:02:56.590Z,15.53
2019-04-09T18:05:37.068Z,13.00
2019-04-09T18:08:18.814Z,14.15
2019-04-09T18:10:59.537Z,14.83
2019-04-09T18:13:40.175Z,14.80
2019-04-09T18:16:20.601Z,13.78
2019-04-09T18:19:02.420Z,17.57
2019-04-09T18:21:43.073Z,15.45
2019-04-09T18:24:28.584Z,15.97
2019-04-09T18:27:07.324Z,19.53
2019-04-09T18:29:47.935Z,15.20
2019-04-09T18:32:29.569Z,16.67
2019-04-09T18:35:11.511Z,16.20
2019-04-09T18:37:52.701Z,17.53
2019-04-09T18:40:33.530Z,19.98
2019-04-09T18:43:14.916Z,17.80
2019-04-09T18:45:55.529Z,18.80
2019-04-09T18:48:42.889Z,15.83
2019-04-09T18:51:18.699Z,15.00
2019-04-09T18:53:59.686Z,17.40
2019-04-09T18:56:40.020Z,15.53
2019-04-09T18:59:21.164Z,21.25
2019-04-09T19:02:02.359Z,16.82
2019-04-09T19:04:43.810Z,31.03
2019-04-09T19:07:24.955Z,21.00
2019-04-09T19:10:06.429Z,21.55
2019-04-09T19:12:47.542Z,22.40
2019-04-09T19:15:28.622Z,25.67
2019-04-09T19:18:10.699Z,19.90
2019-04-09T19:20:52.078Z,18.93
2019-04-09T19:23:33.870Z,18.33
2019-04-09T19:26:15.773Z,20.17
2019-04-09T19:28:58.074Z,18.83
2019-04-09T19:31:39.741Z,16.53
2019-04-09T19:34:21.319Z,21.87
2019-04-09T19:37:03.009Z,18.90
2019-04-09T19:40:03.603Z,15.80
2019-04-09T19:42:45.926Z,19.57
2019-04-09T19:48:34.646Z,15.63
2019-04-09T19:51:15.407Z,20.93
2019-04-09T19:53:56.226Z,19.43
2019-04-09T19:56:37.578Z,18.03
2019-04-09T19:59:18.161Z,16.50
2019-04-09T20:01:58.899Z,25.57
2019-04-09T20:04:39.643Z,17.00
2019-04-09T20:07:20.541Z,18.20
2019-04-09T20:10:02.319Z,16.20
2019-04-09T20:12:43.268Z,22.13
2019-04-09T20:15:22.429Z,18.95
2019-04-09T20:18:29.903Z,18.73
2019-04-09T20:21:18.811Z,23.33
2019-04-09T20:24:08.820Z,18.17
2019-04-09T20:30:43.924Z,24.47
2019-04-09T20:33:16.199Z,19.70
2019-04-09T20:36:49.447Z,21.37
2019-04-09T20:39:41.459Z,23.13
2019-04-09T20:42:29.190Z,25.90
2019-04-09T20:45:18.390Z,23.13
2019-04-09T20:48:08.925Z,22.90
2019-04-09T20:50:57.963Z,25.73
2019-04-09T20:53:48.048Z,28.30
2019-04-09T20:59:38.922Z,30.03
2019-04-09T21:02:43.611Z,25.87
2019-04-09T21:05:24.019Z,28.10
2019-04-09T21:08:05.310Z,30.47
2019-04-09T21:10:45.691Z,30.13
2019-04-09T21:13:26.942Z,29.70
2019-04-09T21:16:08.600Z,28.40
2019-04-09T21:18:49.776Z,31.27
2019-04-09T21:21:31.710Z,31.23
2019-04-09T21:24:13.220Z,29.23
2019-04-09T21:26:54.515Z,34.37
2019-04-09T21:29:34.993Z,29.67
2019-04-09T21:32:15.904Z,35.93
2019-04-09T21:34:57.064Z,34.43
2019-04-09T21:37:38.246Z,35.10
2019-04-09T21:40:21.916Z,37.40
2019-04-09T21:43:01.272Z,36.50
2019-04-09T21:45:43.784Z,33.83
2019-04-09T21:48:25.237Z,37.10
2019-04-09T21:51:05.711Z,34.57
2019-04-09T21:53:46.326Z,34.57
2019-04-09T21:56:28.003Z,32.60
2019-04-09T21:59:08.559Z,36.30
2019-04-09T22:01:49.357Z,39.83
2019-04-09T22:04:18.362Z,38.63
2019-04-09T22:07:06.498Z,36.30
2019-04-09T22:09:54.625Z,33.77
2019-04-09T22:12:42.701Z,39.40
2019-04-09T22:15:31.356Z,37.63
2019-04-09T22:18:23.623Z,40.40
2019-04-09T22:21:10.474Z,43.77
2019-04-09T22:23:59.502Z,39.27
2019-04-09T22:26:49.656Z,42.63
2019-04-09T22:29:39.158Z,35.67
2019-04-09T22:32:28.349Z,39.60
2019-04-09T22:35:17.138Z,36.27
2019-04-09T22:38:06.412Z,36.67
2019-04-09T22:40:55.128Z,37.97
2019-04-09T22:43:44.819Z,35.83
2019-04-09T22:46:34.308Z,38.43
2019-04-09T22:49:22.429Z,37.93
2019-04-09T22:52:10.482Z,33.87
2019-04-09T22:54:58.759Z,33.93
2019-04-09T22:57:40.173Z,37.30
2019-04-09T23:00:40.970Z,36.67
2019-04-09T23:03:42.059Z,36.37
2019-04-09T23:09:48.113Z,36.40
2019-04-09T23:12:48.115Z,41.00
2019-04-09T23:18:39.333Z,34.73
2019-04-09T23:21:20.551Z,35.43
2019-04-09T23:24:01.682Z,35.03
2019-04-09T23:26:43.765Z,37.83
2019-04-09T23:29:24.910Z,36.03
2019-04-09T23:32:05.565Z,37.40
2019-04-09T23:34:46.574Z,35.07
2019-04-09T23:37:27.935Z,33.37
2019-04-09T23:40:08.997Z,35.27
2019-04-09T23:42:49.824Z,39.87
2019-04-09T23:51:41.811Z,34.77
2019-04-09T23:54:21.570Z,30.80
2019-04-09T23:57:02.631Z,43.97
2019-04-09T23:59:43.657Z,35.03
